sensor_id;sensor_type;location;lat;lon;timestamp;temperature;humidity
54126;DHT22;40360;52.992;6.796;2023-12-20T00:01:05;5.60;99.90
54126;DHT22;40360;52.992;6.796;2023-12-20T00:03:30;5.70;99.90
54126;DHT22;40360;52.992;6.796;2023-12-20T00:05:56;5.70;99.90
54126;DHT22;40360;52.992;6.796;2023-12-20T00:08:25;5.70;99.90
54126;DHT22;40360;52.992;6.796;2023-12-20T00:10:50;5.70;99.90
54126;DHT22;40360;52.992;6.796;2023-12-20T00:13:16;5.70;99.90
54126;DHT22;40360;52.992;6.796;2023-12-20T00:15:41;5.70;99.90
54126;DHT22;40360;52.992;6.796;2023-12-20T00:18:07;5.70;99.90
54126;DHT22;40360;52.992;6.796;2023-12-20T00:20:33;5.70;99.90
54126;DHT22;40360;52.992;6.796;2023-12-20T00:22:58;5.70;99.90
54126;DHT22;40360;52.992;6.796;2023-12-20T00:25:24;5.70;99.90
54126;DHT22;40360;52.992;6.796;2023-12-20T00:27:50;5.60;99.90
54126;DHT22;40360;52.992;6.796;2023-12-20T00:30:16;5.60;99.90
54126;DHT22;40360;52.992;6.796;2023-12-20T00:32:42;5.70;99.90
54126;DHT22;40360;52.992;6.796;2023-12-20T00:35:16;5.60;99.90
54126;DHT22;40360;52.992;6.796;2023-12-20T00:37:43;5.60;99.90
54126;DHT22;40360;52.992;6.796;2023-12-20T00:40:09;5.60;99.90
54126;DHT22;40360;52.992;6.796;2023-12-20T00:42:35;5.60;99.90
54126;DHT22;40360;52.992;6.796;2023-12-20T00:45:01;5.60;99.90
54126;DHT22;40360;52.992;6.796;2023-12-20T00:47:27;5.60;99.90
54126;DHT22;40360;52.992;6.796;2023-12-20T00:49:53;6.10;99.90
54126;DHT22;40360;52.992;6.796;2023-12-20T00:52:19;5.60;99.90
54126;DHT22;40360;52.992;6.796;2023-12-20T00:54:45;5.60;99.90
54126;DHT22;40360;52.992;6.796;2023-12-20T00:57:10;5.70;99.90
54126;DHT22;40360;52.992;6.796;2023-12-20T00:59:36;5.70;99.90
54126;DHT22;40360;52.992;6.796;2023-12-20T01:02:02;5.70;99.90
54126;DHT22;40360;52.992;6.796;2023-12-20T01:04:28;5.70;99.90
54126;DHT22;40360;52.992;6.796;2023-12-20T01:06:53;5.80;99.90
54126;DHT22;40360;52.992;6.796;2023-12-20T01:09:19;5.80;99.90
54126;DHT22;40360;52.992;6.796;2023-12-20T01:11:45;5.70;99.90
54126;DHT22;40360;52.992;6.796;2023-12-20T01:14:15;5.70;99.90
54126;DHT22;40360;52.992;6.796;2023-12-20T01:16:40;5.80;99.90
54126;DHT22;40360;52.992;6.796;2023-12-20T01:19:09;5.70;99.90
54126;DHT22;40360;52.992;6.796;2023-12-20T01:21:35;5.70;99.90
54126;DHT22;40360;52.992;6.796;2023-12-20T01:24:00;5.90;99.90
54126;DHT22;40360;52.992;6.796;2023-12-20T01:26:26;5.80;99.90
54126;DHT22;40360;52.992;6.796;2023-12-20T01:28:53;5.80;99.90
54126;DHT22;40360;52.992;6.796;2023-12-20T01:31:19;5.80;99.90
54126;DHT22;40360;52.992;6.796;2023-12-20T01:33:45;5.80;99.90
54126;DHT22;40360;52.992;6.796;2023-12-20T01:36:11;5.80;99.90
54126;DHT22;40360;52.992;6.796;2023-12-20T01:38:37;5.80;99.90
54126;DHT22;40360;52.992;6.796;2023-12-20T01:41:02;5.80;99.90
54126;DHT22;40360;52.992;6.796;2023-12-20T01:43:29;5.70;99.90
54126;DHT22;40360;52.992;6.796;2023-12-20T01:45:59;5.70;99.90
54126;DHT22;40360;52.992;6.796;2023-12-20T01:48:26;5.70;99.90
54126;DHT22;40360;52.992;6.796;2023-12-20T01:50:53;5.70;99.90
54126;DHT22;40360;52.992;6.796;2023-12-20T01:53:21;5.80;99.90
54126;DHT22;40360;52.992;6.796;2023-12-20T01:55:50;5.70;99.90
54126;DHT22;40360;52.992;6.796;2023-12-20T01:58:18;5.70;99.90
54126;DHT22;40360;52.992;6.796;2023-12-20T02:00:44;5.80;99.90
54126;DHT22;40360;52.992;6.796;2023-12-20T02:03:10;5.80;99.90
54126;DHT22;40360;52.992;6.796;2023-12-20T02:05:38;5.80;99.90
54126;DHT22;40360;52.992;6.796;2023-12-20T02:08:04;5.80;99.90
54126;DHT22;40360;52.992;6.796;2023-12-20T02:10:31;5.90;99.90
54126;DHT22;40360;52.992;6.796;2023-12-20T02:12:57;5.90;99.90
54126;DHT22;40360;52.992;6.796;2023-12-20T02:15:23;5.90;99.90
54126;DHT22;40360;52.992;6.796;2023-12-20T02:17:49;5.80;99.90
54126;DHT22;40360;52.992;6.796;2023-12-20T02:20:15;5.80;99.90
54126;DHT22;40360;52.992;6.796;2023-12-20T02:22:40;5.80;99.90
54126;DHT22;40360;52.992;6.796;2023-12-20T02:25:06;5.80;99.90
54126;DHT22;40360;52.992;6.796;2023-12-20T02:27:32;5.80;99.90
54126;DHT22;40360;52.992;6.796;2023-12-20T02:29:58;5.80;99.90
54126;DHT22;40360;52.992;6.796;2023-12-20T02:32:24;5.80;99.90
54126;DHT22;40360;52.992;6.796;2023-12-20T02:34:55;5.90;99.90
54126;DHT22;40360;52.992;6.796;2023-12-20T02:37:21;5.80;99.90
54126;DHT22;40360;52.992;6.796;2023-12-20T02:39:46;5.90;99.90
54126;DHT22;40360;52.992;6.796;2023-12-20T02:42:13;5.90;99.90
54126;DHT22;40360;52.992;6.796;2023-12-20T02:44:38;5.90;99.90
54126;DHT22;40360;52.992;6.796;2023-12-20T02:47:04;5.90;99.90
54126;DHT22;40360;52.992;6.796;2023-12-20T02:49:30;5.90;99.90
54126;DHT22;40360;52.992;6.796;2023-12-20T02:51:56;5.90;99.90
54126;DHT22;40360;52.992;6.796;2023-12-20T02:54:21;5.90;99.90
54126;DHT22;40360;52.992;6.796;2023-12-20T02:56:47;5.90;99.90
54126;DHT22;40360;52.992;6.796;2023-12-20T02:59:13;6.00;99.90
54126;DHT22;40360;52.992;6.796;2023-12-20T03:01:44;6.10;99.90
54126;DHT22;40360;52.992;6.796;2023-12-20T03:04:10;6.10;99.90
54126;DHT22;40360;52.992;6.796;2023-12-20T03:06:35;6.10;99.90
54126;DHT22;40360;52.992;6.796;2023-12-20T03:09:01;6.10;99.90
54126;DHT22;40360;52.992;6.796;2023-12-20T03:11:27;6.10;99.90
54126;DHT22;40360;52.992;6.796;2023-12-20T03:13:53;6.20;99.90
54126;DHT22;40360;52.992;6.796;2023-12-20T03:16:19;6.20;99.90
54126;DHT22;40360;52.992;6.796;2023-12-20T03:18:45;6.20;99.90
54126;DHT22;40360;52.992;6.796;2023-12-20T03:21:10;6.30;99.90
54126;DHT22;40360;52.992;6.796;2023-12-20T03:23:36;6.30;99.90
54126;DHT22;40360;52.992;6.796;2023-12-20T03:26:02;6.30;99.90
54126;DHT22;40360;52.992;6.796;2023-12-20T03:28:27;6.20;99.90
54126;DHT22;40360;52.992;6.796;2023-12-20T03:30:53;6.20;99.90
54126;DHT22;40360;52.992;6.796;2023-12-20T03:33:19;6.10;99.90
54126;DHT22;40360;52.992;6.796;2023-12-20T03:35:45;6.20;99.90
54126;DHT22;40360;52.992;6.796;2023-12-20T03:38:10;6.10;99.90
54126;DHT22;40360;52.992;6.796;2023-12-20T03:40:36;6.10;99.90
54126;DHT22;40360;52.992;6.796;2023-12-20T03:43:02;6.10;99.90
54126;DHT22;40360;52.992;6.796;2023-12-20T03:45:27;6.00;99.90
54126;DHT22;40360;52.992;6.796;2023-12-20T03:47:53;6.10;99.90
54126;DHT22;40360;52.992;6.796;2023-12-20T03:50:23;6.10;99.90
54126;DHT22;40360;52.992;6.796;2023-12-20T03:52:49;6.10;99.90
54126;DHT22;40360;52.992;6.796;2023-12-20T03:55:15;6.10;99.90
54126;DHT22;40360;52.992;6.796;2023-12-20T03:57:41;6.10;99.90
54126;DHT22;40360;52.992;6.796;2023-12-20T04:00:07;6.10;99.90
54126;DHT22;40360;52.992;6.796;2023-12-20T04:02:40;6.00;99.90
54126;DHT22;40360;52.992;6.796;2023-12-20T04:05:07;6.00;99.90
54126;DHT22;40360;52.992;6.796;2023-12-20T04:07:33;6.00;99.90
54126;DHT22;40360;52.992;6.796;2023-12-20T04:09:58;6.10;99.90
54126;DHT22;40360;52.992;6.796;2023-12-20T04:12:24;6.10;99.90
54126;DHT22;40360;52.992;6.796;2023-12-20T04:14:50;6.20;99.90
54126;DHT22;40360;52.992;6.796;2023-12-20T04:17:16;6.20;99.90
54126;DHT22;40360;52.992;6.796;2023-12-20T04:19:45;6.20;99.90
54126;DHT22;40360;52.992;6.796;2023-12-20T04:22:10;6.30;99.90
54126;DHT22;40360;52.992;6.796;2023-12-20T04:24:36;6.30;99.90
54126;DHT22;40360;52.992;6.796;2023-12-20T04:27:02;6.30;99.90
54126;DHT22;40360;52.992;6.796;2023-12-20T04:29:28;6.30;99.90
54126;DHT22;40360;52.992;6.796;2023-12-20T04:31:53;6.30;99.90
54126;DHT22;40360;52.992;6.796;2023-12-20T04:34:19;6.40;99.90
54126;DHT22;40360;52.992;6.796;2023-12-20T04:36:45;6.40;99.90
54126;DHT22;40360;52.992;6.796;2023-12-20T04:39:12;6.40;99.90
54126;DHT22;40360;52.992;6.796;2023-12-20T04:41:38;6.40;99.90
54126;DHT22;40360;52.992;6.796;2023-12-20T04:44:04;6.40;99.90
54126;DHT22;40360;52.992;6.796;2023-12-20T04:46:30;6.50;99.90
54126;DHT22;40360;52.992;6.796;2023-12-20T04:48:55;6.50;99.90
54126;DHT22;40360;52.992;6.796;2023-12-20T04:51:21;6.50;99.90
54126;DHT22;40360;52.992;6.796;2023-12-20T04:53:47;6.50;99.90
54126;DHT22;40360;52.992;6.796;2023-12-20T04:56:13;6.60;99.90
54126;DHT22;40360;52.992;6.796;2023-12-20T04:58:38;6.50;99.90
54126;DHT22;40360;52.992;6.796;2023-12-20T05:01:06;6.60;99.90
54126;DHT22;40360;52.992;6.796;2023-12-20T05:03:32;6.60;99.90
54126;DHT22;40360;52.992;6.796;2023-12-20T05:05:58;6.60;99.90
54126;DHT22;40360;52.992;6.796;2023-12-20T05:08:24;6.60;99.90
54126;DHT22;40360;52.992;6.796;2023-12-20T05:10:51;6.70;99.90
54126;DHT22;40360;52.992;6.796;2023-12-20T05:13:17;6.70;99.90
54126;DHT22;40360;52.992;6.796;2023-12-20T05:15:42;6.70;99.90
54126;DHT22;40360;52.992;6.796;2023-12-20T05:18:08;6.80;99.90
54126;DHT22;40360;52.992;6.796;2023-12-20T05:20:34;6.80;99.90
54126;DHT22;40360;52.992;6.796;2023-12-20T05:22:59;6.80;99.90
54126;DHT22;40360;52.992;6.796;2023-12-20T05:25:25;6.80;99.90
54126;DHT22;40360;52.992;6.796;2023-12-20T05:27:51;6.80;99.90
54126;DHT22;40360;52.992;6.796;2023-12-20T05:30:16;6.80;99.90
54126;DHT22;40360;52.992;6.796;2023-12-20T05:32:42;6.90;99.90
54126;DHT22;40360;52.992;6.796;2023-12-20T05:35:08;6.80;99.90
54126;DHT22;40360;52.992;6.796;2023-12-20T05:37:33;6.90;99.90
54126;DHT22;40360;52.992;6.796;2023-12-20T05:39:59;6.80;99.90
54126;DHT22;40360;52.992;6.796;2023-12-20T05:42:24;6.90;99.90
54126;DHT22;40360;52.992;6.796;2023-12-20T05:44:50;6.90;99.90
54126;DHT22;40360;52.992;6.796;2023-12-20T05:47:16;6.90;99.90
54126;DHT22;40360;52.992;6.796;2023-12-20T05:49:42;6.90;99.90
54126;DHT22;40360;52.992;6.796;2023-12-20T05:52:08;6.90;99.90
54126;DHT22;40360;52.992;6.796;2023-12-20T05:54:33;7.00;99.90
54126;DHT22;40360;52.992;6.796;2023-12-20T05:56:59;7.00;99.90
54126;DHT22;40360;52.992;6.796;2023-12-20T05:59:26;6.90;99.90
54126;DHT22;40360;52.992;6.796;2023-12-20T06:01:51;7.00;99.90
54126;DHT22;40360;52.992;6.796;2023-12-20T06:04:17;7.00;99.90
54126;DHT22;40360;52.992;6.796;2023-12-20T06:06:43;7.00;99.90
54126;DHT22;40360;52.992;6.796;2023-12-20T06:09:09;7.00;99.90
54126;DHT22;40360;52.992;6.796;2023-12-20T06:11:35;7.00;99.90
54126;DHT22;40360;52.992;6.796;2023-12-20T06:14:01;7.00;99.90
54126;DHT22;40360;52.992;6.796;2023-12-20T06:16:26;7.10;99.90
54126;DHT22;40360;52.992;6.796;2023-12-20T06:18:52;7.10;99.90
54126;DHT22;40360;52.992;6.796;2023-12-20T06:21:18;7.10;99.90
54126;DHT22;40360;52.992;6.796;2023-12-20T06:23:43;7.10;99.90
54126;DHT22;40360;52.992;6.796;2023-12-20T06:26:09;7.20;99.90
54126;DHT22;40360;52.992;6.796;2023-12-20T06:28:35;7.20;99.90
54126;DHT22;40360;52.992;6.796;2023-12-20T06:31:00;7.20;99.90
54126;DHT22;40360;52.992;6.796;2023-12-20T06:33:26;7.20;99.90
54126;DHT22;40360;52.992;6.796;2023-12-20T06:35:52;7.20;99.90
54126;DHT22;40360;52.992;6.796;2023-12-20T06:38:18;7.20;99.90
54126;DHT22;40360;52.992;6.796;2023-12-20T06:40:44;7.20;99.90
54126;DHT22;40360;52.992;6.796;2023-12-20T06:43:14;7.20;99.90
54126;DHT22;40360;52.992;6.796;2023-12-20T06:45:40;7.20;99.90
54126;DHT22;40360;52.992;6.796;2023-12-20T06:48:06;7.20;99.90
54126;DHT22;40360;52.992;6.796;2023-12-20T06:50:32;7.20;99.90
54126;DHT22;40360;52.992;6.796;2023-12-20T06:52:58;7.20;99.90
54126;DHT22;40360;52.992;6.796;2023-12-20T06:55:23;7.20;99.90
54126;DHT22;40360;52.992;6.796;2023-12-20T06:57:49;7.20;99.90
54126;DHT22;40360;52.992;6.796;2023-12-20T07:00:15;7.20;99.90
54126;DHT22;40360;52.992;6.796;2023-12-20T07:02:41;7.10;99.90
54126;DHT22;40360;52.992;6.796;2023-12-20T07:22:47;7.20;99.90
54126;DHT22;40360;52.992;6.796;2023-12-20T07:25:13;7.30;99.90
54126;DHT22;40360;52.992;6.796;2023-12-20T07:27:39;7.30;99.90
54126;DHT22;40360;52.992;6.796;2023-12-20T07:30:05;7.30;99.90
54126;DHT22;40360;52.992;6.796;2023-12-20T07:32:30;7.30;99.90
54126;DHT22;40360;52.992;6.796;2023-12-20T07:34:57;7.30;99.90
54126;DHT22;40360;52.992;6.796;2023-12-20T07:37:23;7.30;99.90
54126;DHT22;40360;52.992;6.796;2023-12-20T07:39:48;7.40;99.90
54126;DHT22;40360;52.992;6.796;2023-12-20T07:42:14;7.40;99.90
54126;DHT22;40360;52.992;6.796;2023-12-20T07:44:40;7.40;99.90
54126;DHT22;40360;52.992;6.796;2023-12-20T07:47:05;7.40;99.90
54126;DHT22;40360;52.992;6.796;2023-12-20T07:49:31;7.50;99.90
54126;DHT22;40360;52.992;6.796;2023-12-20T07:51:57;7.50;99.90
54126;DHT22;40360;52.992;6.796;2023-12-20T07:54:23;7.50;99.90
54126;DHT22;40360;52.992;6.796;2023-12-20T07:56:49;7.50;99.90
54126;DHT22;40360;52.992;6.796;2023-12-20T07:59:14;7.50;99.90
54126;DHT22;40360;52.992;6.796;2023-12-20T08:01:40;7.60;99.90
54126;DHT22;40360;52.992;6.796;2023-12-20T08:04:06;7.60;99.90
54126;DHT22;40360;52.992;6.796;2023-12-20T08:06:31;7.60;99.90
54126;DHT22;40360;52.992;6.796;2023-12-20T08:08:57;7.60;99.90
54126;DHT22;40360;52.992;6.796;2023-12-20T08:11:22;7.70;99.90
54126;DHT22;40360;52.992;6.796;2023-12-20T08:13:48;7.70;99.90
54126;DHT22;40360;52.992;6.796;2023-12-20T08:16:14;7.70;99.90
54126;DHT22;40360;52.992;6.796;2023-12-20T08:18:41;7.70;99.90
54126;DHT22;40360;52.992;6.796;2023-12-20T08:21:07;7.70;99.90
54126;DHT22;40360;52.992;6.796;2023-12-20T08:23:34;7.70;99.90
54126;DHT22;40360;52.992;6.796;2023-12-20T08:26:07;7.70;99.90
54126;DHT22;40360;52.992;6.796;2023-12-20T08:28:33;7.70;99.90
54126;DHT22;40360;52.992;6.796;2023-12-20T08:30:59;7.80;99.90
54126;DHT22;40360;52.992;6.796;2023-12-20T08:33:25;7.80;99.90
54126;DHT22;40360;52.992;6.796;2023-12-20T08:35:51;7.80;99.90
54126;DHT22;40360;52.992;6.796;2023-12-20T08:38:16;7.80;99.90
54126;DHT22;40360;52.992;6.796;2023-12-20T08:40:43;7.90;99.90
54126;DHT22;40360;52.992;6.796;2023-12-20T08:43:09;7.90;99.90
54126;DHT22;40360;52.992;6.796;2023-12-20T08:45:35;7.90;99.90
54126;DHT22;40360;52.992;6.796;2023-12-20T08:48:01;7.90;99.90
54126;DHT22;40360;52.992;6.796;2023-12-20T08:50:26;7.90;99.90
54126;DHT22;40360;52.992;6.796;2023-12-20T08:52:52;7.90;99.90
54126;DHT22;40360;52.992;6.796;2023-12-20T08:55:19;7.70;99.90
54126;DHT22;40360;52.992;6.796;2023-12-20T08:57:45;7.50;99.90
54126;DHT22;40360;52.992;6.796;2023-12-20T09:00:11;7.50;99.90
54126;DHT22;40360;52.992;6.796;2023-12-20T09:02:36;7.40;99.90
54126;DHT22;40360;52.992;6.796;2023-12-20T09:05:03;7.30;99.90
54126;DHT22;40360;52.992;6.796;2023-12-20T09:07:29;7.30;99.90
54126;DHT22;40360;52.992;6.796;2023-12-20T09:09:57;7.30;99.90
54126;DHT22;40360;52.992;6.796;2023-12-20T09:12:23;7.40;99.90
54126;DHT22;40360;52.992;6.796;2023-12-20T09:14:50;7.40;99.90
54126;DHT22;40360;52.992;6.796;2023-12-20T09:17:17;7.50;99.90
54126;DHT22;40360;52.992;6.796;2023-12-20T09:19:43;7.60;99.90
54126;DHT22;40360;52.992;6.796;2023-12-20T09:22:09;7.60;99.90
54126;DHT22;40360;52.992;6.796;2023-12-20T09:24:35;7.70;99.90
54126;DHT22;40360;52.992;6.796;2023-12-20T09:27:01;7.70;99.90
54126;DHT22;40360;52.992;6.796;2023-12-20T09:29:28;7.80;99.90
54126;DHT22;40360;52.992;6.796;2023-12-20T09:31:54;7.80;99.90
54126;DHT22;40360;52.992;6.796;2023-12-20T09:34:19;7.90;99.90
54126;DHT22;40360;52.992;6.796;2023-12-20T09:36:45;7.60;99.90
54126;DHT22;40360;52.992;6.796;2023-12-20T09:39:16;7.30;99.90
54126;DHT22;40360;52.992;6.796;2023-12-20T09:42:11;7.00;99.90
54126;DHT22;40360;52.992;6.796;2023-12-20T09:44:35;6.80;99.90
54126;DHT22;40360;52.992;6.796;2023-12-20T09:47:06;6.70;99.90
54126;DHT22;40360;52.992;6.796;2023-12-20T09:49:33;6.60;99.90
54126;DHT22;40360;52.992;6.796;2023-12-20T09:52:00;6.50;99.90
54126;DHT22;40360;52.992;6.796;2023-12-20T09:54:27;6.50;99.90
54126;DHT22;40360;52.992;6.796;2023-12-20T09:56:53;6.40;99.90
54126;DHT22;40360;52.992;6.796;2023-12-20T09:59:19;6.40;99.90
54126;DHT22;40360;52.992;6.796;2023-12-20T10:01:45;6.40;99.90
54126;DHT22;40360;52.992;6.796;2023-12-20T10:04:12;6.30;99.90
54126;DHT22;40360;52.992;6.796;2023-12-20T10:06:40;6.30;99.90
54126;DHT22;40360;52.992;6.796;2023-12-20T10:09:06;6.40;99.90
54126;DHT22;40360;52.992;6.796;2023-12-20T10:11:32;6.40;99.90
54126;DHT22;40360;52.992;6.796;2023-12-20T10:14:00;6.30;99.90
54126;DHT22;40360;52.992;6.796;2023-12-20T10:16:27;6.30;99.90
54126;DHT22;40360;52.992;6.796;2023-12-20T10:18:53;6.40;99.90
54126;DHT22;40360;52.992;6.796;2023-12-20T10:21:19;6.40;99.90
54126;DHT22;40360;52.992;6.796;2023-12-20T10:23:46;6.40;99.90
54126;DHT22;40360;52.992;6.796;2023-12-20T10:26:23;6.40;99.90
54126;DHT22;40360;52.992;6.796;2023-12-20T10:28:59;6.40;99.90
54126;DHT22;40360;52.992;6.796;2023-12-20T10:31:32;6.40;99.90
54126;DHT22;40360;52.992;6.796;2023-12-20T10:34:00;6.40;99.90
54126;DHT22;40360;52.992;6.796;2023-12-20T10:36:26;6.40;99.90
54126;DHT22;40360;52.992;6.796;2023-12-20T10:38:53;6.40;99.90
54126;DHT22;40360;52.992;6.796;2023-12-20T10:44:00;6.40;99.90
54126;DHT22;40360;52.992;6.796;2023-12-20T10:46:27;6.30;99.90
54126;DHT22;40360;52.992;6.796;2023-12-20T10:48:54;6.30;99.90
54126;DHT22;40360;52.992;6.796;2023-12-20T10:51:21;6.30;99.90
54126;DHT22;40360;52.992;6.796;2023-12-20T10:53:48;6.30;99.90
54126;DHT22;40360;52.992;6.796;2023-12-20T10:56:19;6.30;99.90
54126;DHT22;40360;52.992;6.796;2023-12-20T10:58:46;6.30;99.90
54126;DHT22;40360;52.992;6.796;2023-12-20T11:01:13;6.40;99.90
54126;DHT22;40360;52.992;6.796;2023-12-20T11:03:53;6.40;99.90
54126;DHT22;40360;52.992;6.796;2023-12-20T11:09:10;6.40;99.90
54126;DHT22;40360;52.992;6.796;2023-12-20T11:14:21;6.50;99.90
54126;DHT22;40360;52.992;6.796;2023-12-20T11:16:47;6.60;99.90
54126;DHT22;40360;52.992;6.796;2023-12-20T11:19:13;6.60;99.90
54126;DHT22;40360;52.992;6.796;2023-12-20T11:21:40;6.70;99.90
54126;DHT22;40360;52.992;6.796;2023-12-20T11:24:06;6.70;99.90
54126;DHT22;40360;52.992;6.796;2023-12-20T11:26:32;6.70;99.90
54126;DHT22;40360;52.992;6.796;2023-12-20T11:29:32;6.80;99.90
54126;DHT22;40360;52.992;6.796;2023-12-20T11:34:46;6.80;99.90
54126;DHT22;40360;52.992;6.796;2023-12-20T11:37:13;6.90;99.90
54126;DHT22;40360;52.992;6.796;2023-12-20T11:39:39;6.90;99.90
54126;DHT22;40360;52.992;6.796;2023-12-20T11:42:05;6.90;99.90
54126;DHT22;40360;52.992;6.796;2023-12-20T11:44:31;6.90;99.90
54126;DHT22;40360;52.992;6.796;2023-12-20T11:46:58;7.00;99.90
54126;DHT22;40360;52.992;6.796;2023-12-20T11:49:27;7.00;99.90
54126;DHT22;40360;52.992;6.796;2023-12-20T11:51:54;7.00;99.90
54126;DHT22;40360;52.992;6.796;2023-12-20T11:54:20;7.10;99.90
54126;DHT22;40360;52.992;6.796;2023-12-20T11:56:46;7.00;99.90
54126;DHT22;40360;52.992;6.796;2023-12-20T11:59:12;7.10;99.90
54126;DHT22;40360;52.992;6.796;2023-12-20T12:01:38;7.10;99.90
54126;DHT22;40360;52.992;6.796;2023-12-20T12:04:05;7.10;99.90
54126;DHT22;40360;52.992;6.796;2023-12-20T12:06:31;7.10;99.90
54126;DHT22;40360;52.992;6.796;2023-12-20T12:08:56;7.10;99.90
54126;DHT22;40360;52.992;6.796;2023-12-20T12:11:22;7.10;99.90
54126;DHT22;40360;52.992;6.796;2023-12-20T12:13:48;7.20;99.90
54126;DHT22;40360;52.992;6.796;2023-12-20T12:16:18;7.20;99.90
54126;DHT22;40360;52.992;6.796;2023-12-20T12:18:45;7.20;99.90
54126;DHT22;40360;52.992;6.796;2023-12-20T12:21:19;7.30;99.90
54126;DHT22;40360;52.992;6.796;2023-12-20T12:23:46;7.30;99.90
54126;DHT22;40360;52.992;6.796;2023-12-20T12:26:11;7.30;99.90
54126;DHT22;40360;52.992;6.796;2023-12-20T12:28:40;7.30;99.90
54126;DHT22;40360;52.992;6.796;2023-12-20T12:31:06;7.30;99.90
54126;DHT22;40360;52.992;6.796;2023-12-20T12:33:32;7.30;99.90
54126;DHT22;40360;52.992;6.796;2023-12-20T12:35:58;7.30;99.90
54126;DHT22;40360;52.992;6.796;2023-12-20T12:38:25;7.30;99.90
54126;DHT22;40360;52.992;6.796;2023-12-20T12:40:51;7.30;99.90
54126;DHT22;40360;52.992;6.796;2023-12-20T12:43:19;7.30;99.90
54126;DHT22;40360;52.992;6.796;2023-12-20T12:45:44;7.30;99.90
54126;DHT22;40360;52.992;6.796;2023-12-20T12:48:10;7.30;99.90
54126;DHT22;40360;52.992;6.796;2023-12-20T12:50:36;7.20;99.90
54126;DHT22;40360;52.992;6.796;2023-12-20T12:53:02;7.20;99.90
54126;DHT22;40360;52.992;6.796;2023-12-20T12:55:28;7.20;99.90
54126;DHT22;40360;52.992;6.796;2023-12-20T12:57:54;7.20;99.90
54126;DHT22;40360;52.992;6.796;2023-12-20T13:00:20;7.20;99.90
54126;DHT22;40360;52.992;6.796;2023-12-20T13:02:45;7.20;99.90
54126;DHT22;40360;52.992;6.796;2023-12-20T13:05:11;7.20;99.90
54126;DHT22;40360;52.992;6.796;2023-12-20T13:07:37;7.20;99.90
54126;DHT22;40360;52.992;6.796;2023-12-20T13:10:03;7.20;99.90
54126;DHT22;40360;52.992;6.796;2023-12-20T13:12:29;7.20;99.90
54126;DHT22;40360;52.992;6.796;2023-12-20T13:14:55;7.20;99.90
54126;DHT22;40360;52.992;6.796;2023-12-20T13:17:21;7.20;99.90
54126;DHT22;40360;52.992;6.796;2023-12-20T13:19:46;7.20;99.90
54126;DHT22;40360;52.992;6.796;2023-12-20T13:22:12;7.20;99.90
54126;DHT22;40360;52.992;6.796;2023-12-20T13:24:37;7.20;99.90
54126;DHT22;40360;52.992;6.796;2023-12-20T13:27:03;7.20;99.90
54126;DHT22;40360;52.992;6.796;2023-12-20T13:29:29;7.20;99.90
54126;DHT22;40360;52.992;6.796;2023-12-20T13:31:54;7.20;99.90
54126;DHT22;40360;52.992;6.796;2023-12-20T13:34:20;7.10;99.90
54126;DHT22;40360;52.992;6.796;2023-12-20T13:36:46;7.10;99.90
54126;DHT22;40360;52.992;6.796;2023-12-20T13:39:13;7.00;99.90
54126;DHT22;40360;52.992;6.796;2023-12-20T13:41:39;6.90;99.90
54126;DHT22;40360;52.992;6.796;2023-12-20T13:44:05;6.80;99.90
54126;DHT22;40360;52.992;6.796;2023-12-20T13:46:31;6.80;99.90
54126;DHT22;40360;52.992;6.796;2023-12-20T13:48:57;6.80;99.90
54126;DHT22;40360;52.992;6.796;2023-12-20T13:51:25;6.70;99.90
54126;DHT22;40360;52.992;6.796;2023-12-20T13:53:51;6.70;99.90
54126;DHT22;40360;52.992;6.796;2023-12-20T13:56:17;6.60;99.90
54126;DHT22;40360;52.992;6.796;2023-12-20T13:58:43;6.60;99.90
54126;DHT22;40360;52.992;6.796;2023-12-20T14:01:10;6.50;99.90
54126;DHT22;40360;52.992;6.796;2023-12-20T14:03:36;6.50;99.90
54126;DHT22;40360;52.992;6.796;2023-12-20T14:06:02;6.40;99.90
54126;DHT22;40360;52.992;6.796;2023-12-20T14:08:27;6.40;99.90
54126;DHT22;40360;52.992;6.796;2023-12-20T14:10:53;6.40;99.90
54126;DHT22;40360;52.992;6.796;2023-12-20T14:13:19;6.40;99.90
54126;DHT22;40360;52.992;6.796;2023-12-20T14:15:46;6.40;99.90
54126;DHT22;40360;52.992;6.796;2023-12-20T14:18:13;6.30;99.90
54126;DHT22;40360;52.992;6.796;2023-12-20T14:20:40;6.30;99.90
54126;DHT22;40360;52.992;6.796;2023-12-20T14:23:08;6.30;99.90
54126;DHT22;40360;52.992;6.796;2023-12-20T14:25:36;6.30;99.90
54126;DHT22;40360;52.992;6.796;2023-12-20T14:28:05;6.30;99.90
54126;DHT22;40360;52.992;6.796;2023-12-20T14:30:31;6.30;99.90
54126;DHT22;40360;52.992;6.796;2023-12-20T14:32:57;6.30;99.90
54126;DHT22;40360;52.992;6.796;2023-12-20T14:35:23;6.30;99.90
54126;DHT22;40360;52.992;6.796;2023-12-20T14:37:48;6.30;99.90
54126;DHT22;40360;52.992;6.796;2023-12-20T14:40:16;6.20;99.90
54126;DHT22;40360;52.992;6.796;2023-12-20T14:42:42;6.20;99.90
54126;DHT22;40360;52.992;6.796;2023-12-20T14:45:09;6.10;99.90
54126;DHT22;40360;52.992;6.796;2023-12-20T14:47:35;6.20;99.90
54126;DHT22;40360;52.992;6.796;2023-12-20T14:50:04;6.20;99.90
54126;DHT22;40360;52.992;6.796;2023-12-20T14:52:31;6.20;99.90
54126;DHT22;40360;52.992;6.796;2023-12-20T14:54:57;6.20;99.90
54126;DHT22;40360;52.992;6.796;2023-12-20T14:57:23;6.20;99.90
54126;DHT22;40360;52.992;6.796;2023-12-20T14:59:48;6.20;99.90
54126;DHT22;40360;52.992;6.796;2023-12-20T15:02:14;6.20;99.90
54126;DHT22;40360;52.992;6.796;2023-12-20T15:04:41;6.20;99.90
54126;DHT22;40360;52.992;6.796;2023-12-20T15:07:06;6.20;99.90
54126;DHT22;40360;52.992;6.796;2023-12-20T15:09:32;6.20;99.90
54126;DHT22;40360;52.992;6.796;2023-12-20T15:11:58;6.20;99.90
54126;DHT22;40360;52.992;6.796;2023-12-20T15:14:23;6.20;99.90
54126;DHT22;40360;52.992;6.796;2023-12-20T15:16:49;6.20;99.90
54126;DHT22;40360;52.992;6.796;2023-12-20T15:19:15;6.20;99.90
54126;DHT22;40360;52.992;6.796;2023-12-20T15:21:41;6.20;99.90
54126;DHT22;40360;52.992;6.796;2023-12-20T15:24:13;6.20;99.90
54126;DHT22;40360;52.992;6.796;2023-12-20T15:26:41;6.20;99.90
54126;DHT22;40360;52.992;6.796;2023-12-20T15:29:08;6.20;99.90
54126;DHT22;40360;52.992;6.796;2023-12-20T15:31:36;6.20;99.90
54126;DHT22;40360;52.992;6.796;2023-12-20T15:34:03;6.20;99.90
54126;DHT22;40360;52.992;6.796;2023-12-20T15:36:28;6.20;99.90
54126;DHT22;40360;52.992;6.796;2023-12-20T15:38:54;6.20;99.90
54126;DHT22;40360;52.992;6.796;2023-12-20T15:41:23;6.20;99.90
54126;DHT22;40360;52.992;6.796;2023-12-20T15:43:51;6.20;99.90
54126;DHT22;40360;52.992;6.796;2023-12-20T15:46:17;6.20;99.90
54126;DHT22;40360;52.992;6.796;2023-12-20T15:48:42;6.20;99.90
54126;DHT22;40360;52.992;6.796;2023-12-20T15:51:10;6.20;99.90
54126;DHT22;40360;52.992;6.796;2023-12-20T15:53:36;6.20;99.90
54126;DHT22;40360;52.992;6.796;2023-12-20T15:56:03;6.20;99.90
54126;DHT22;40360;52.992;6.796;2023-12-20T15:58:31;6.30;99.90
54126;DHT22;40360;52.992;6.796;2023-12-20T16:00:57;6.30;99.90
54126;DHT22;40360;52.992;6.796;2023-12-20T16:03:23;6.30;99.90
54126;DHT22;40360;52.992;6.796;2023-12-20T16:05:48;6.30;99.90
54126;DHT22;40360;52.992;6.796;2023-12-20T16:08:15;6.40;99.90